sensor_id;sensor_type;location;lat;lon;timestamp;pressure;altitude;pressure_sealevel;temperature;humidity
5283;BME280;15376;48.540;9.268;2023-02-16T00:00:57;98571.25;;;0.10;100.00
5283;BME280;15376;48.540;9.268;2023-02-16T00:03:22;98582.84;;;0.20;100.00
5283;BME280;15376;48.540;9.268;2023-02-16T00:05:48;98581.53;;;0.27;100.00
5283;BME280;15376;48.540;9.268;2023-02-16T00:08:14;98582.75;;;0.36;100.00
5283;BME280;15376;48.540;9.268;2023-02-16T00:10:40;98588.09;;;0.05;100.00
5283;BME280;15376;48.540;9.268;2023-02-16T00:13:20;98573.75;;;-0.32;100.00
5283;BME280;15376;48.540;9.268;2023-02-16T00:16:18;98563.91;;;-0.57;100.00
5283;BME280;15376;48.540;9.268;2023-02-16T00:18:44;98575.66;;;-0.50;100.00
5283;BME280;15376;48.540;9.268;2023-02-16T00:21:09;98573.16;;;-0.52;100.00
5283;BME280;15376;48.540;9.268;2023-02-16T00:23:35;98564.41;;;-0.67;100.00
5283;BME280;15376;48.540;9.268;2023-02-16T00:26:00;98566.75;;;-0.62;100.00
5283;BME280;15376;48.540;9.268;2023-02-16T00:28:26;98554.22;;;-0.55;100.00
5283;BME280;15376;48.540;9.268;2023-02-16T00:30:51;98553.19;;;-0.53;100.00
5283;BME280;15376;48.540;9.268;2023-02-16T00:33:19;98555.41;;;-0.61;100.00
5283;BME280;15376;48.540;9.268;2023-02-16T00:35:45;98549.78;;;-0.69;100.00
5283;BME280;15376;48.540;9.268;2023-02-16T00:38:11;98543.75;;;-0.85;100.00
5283;BME280;15376;48.540;9.268;2023-02-16T00:40:37;98553.13;;;-0.67;100.00
5283;BME280;15376;48.540;9.268;2023-02-16T00:43:03;98553.31;;;-0.70;100.00
5283;BME280;15376;48.540;9.268;2023-02-16T00:45:29;98553.78;;;-0.48;100.00
5283;BME280;15376;48.540;9.268;2023-02-16T00:47:57;98549.88;;;-0.11;100.00
5283;BME280;15376;48.540;9.268;2023-02-16T00:50:26;98537.69;;;0.32;100.00
5283;BME280;15376;48.540;9.268;2023-02-16T00:52:52;98540.56;;;0.56;100.00
5283;BME280;15376;48.540;9.268;2023-02-16T00:55:20;98539.72;;;0.70;100.00
5283;BME280;15376;48.540;9.268;2023-02-16T00:57:49;98543.25;;;0.69;100.00
5283;BME280;15376;48.540;9.268;2023-02-16T01:00:27;98546.09;;;0.23;100.00
5283;BME280;15376;48.540;9.268;2023-02-16T01:03:00;98546.34;;;-0.10;100.00
5283;BME280;15376;48.540;9.268;2023-02-16T01:05:27;98512.31;;;-0.38;100.00
5283;BME280;15376;48.540;9.268;2023-02-16T01:07:53;98553.72;;;-0.32;100.00
5283;BME280;15376;48.540;9.268;2023-02-16T01:10:38;98552.97;;;-0.34;100.00
5283;BME280;15376;48.540;9.268;2023-02-16T01:13:24;98554.72;;;-0.35;100.00
5283;BME280;15376;48.540;9.268;2023-02-16T01:15:50;98546.94;;;-0.20;100.00
5283;BME280;15376;48.540;9.268;2023-02-16T01:18:17;98545.13;;;-0.04;100.00
5283;BME280;15376;48.540;9.268;2023-02-16T01:20:43;98535.53;;;0.11;100.00
5283;BME280;15376;48.540;9.268;2023-02-16T01:23:20;98547.84;;;0.23;100.00
5283;BME280;15376;48.540;9.268;2023-02-16T01:25:45;98552.72;;;0.29;100.00
5283;BME280;15376;48.540;9.268;2023-02-16T01:28:24;98549.91;;;0.32;100.00
5283;BME280;15376;48.540;9.268;2023-02-16T01:30:50;98548.25;;;0.31;100.00
5283;BME280;15376;48.540;9.268;2023-02-16T01:33:17;98536.09;;;0.16;100.00
5283;BME280;15376;48.540;9.268;2023-02-16T01:35:43;98552.59;;;0.16;100.00
5283;BME280;15376;48.540;9.268;2023-02-16T01:38:21;98546.72;;;-0.02;100.00
5283;BME280;15376;48.540;9.268;2023-02-16T01:41:08;98529.53;;;-0.20;100.00
5283;BME280;15376;48.540;9.268;2023-02-16T01:43:50;98534.50;;;-0.01;100.00
5283;BME280;15376;48.540;9.268;2023-02-16T01:46:21;98530.97;;;0.14;100.00
5283;BME280;15376;48.540;9.268;2023-02-16T01:48:49;98542.09;;;0.32;100.00
5283;BME280;15376;48.540;9.268;2023-02-16T01:51:32;98523.22;;;-0.02;100.00
5283;BME280;15376;48.540;9.268;2023-02-16T01:54:09;98545.69;;;0.15;100.00
5283;BME280;15376;48.540;9.268;2023-02-16T01:56:47;98543.66;;;0.35;100.00
5283;BME280;15376;48.540;9.268;2023-02-16T02:01:54;98545.34;;;0.21;100.00
5283;BME280;15376;48.540;9.268;2023-02-16T02:04:45;98523.50;;;0.22;100.00
5283;BME280;15376;48.540;9.268;2023-02-16T02:07:39;98530.31;;;0.39;100.00
5283;BME280;15376;48.540;9.268;2023-02-16T02:10:12;98540.66;;;0.55;100.00
5283;BME280;15376;48.540;9.268;2023-02-16T02:12:48;98535.06;;;0.18;100.00
5283;BME280;15376;48.540;9.268;2023-02-16T02:15:19;98529.25;;;-0.15;100.00
5283;BME280;15376;48.540;9.268;2023-02-16T02:17:45;98529.78;;;-0.24;100.00
5283;BME280;15376;48.540;9.268;2023-02-16T02:26:47;98525.34;;;-0.08;100.00
5283;BME280;15376;48.540;9.268;2023-02-16T02:35:35;98502.66;;;-0.22;100.00
5283;BME280;15376;48.540;9.268;2023-02-16T02:38:32;98502.53;;;-0.49;100.00
5283;BME280;15376;48.540;9.268;2023-02-16T02:43:43;98496.06;;;-0.87;100.00
5283;BME280;15376;48.540;9.268;2023-02-16T02:46:26;98514.94;;;-0.68;100.00
5283;BME280;15376;48.540;9.268;2023-02-16T02:48:53;98519.97;;;-0.65;100.00
5283;BME280;15376;48.540;9.268;2023-02-16T02:51:18;98517.34;;;-0.49;100.00
5283;BME280;15376;48.540;9.268;2023-02-16T02:54:03;98508.88;;;-0.39;100.00
5283;BME280;15376;48.540;9.268;2023-02-16T02:56:55;98513.38;;;-0.26;100.00
5283;BME280;15376;48.540;9.268;2023-02-16T02:59:46;98514.47;;;-0.30;100.00
5283;BME280;15376;48.540;9.268;2023-02-16T03:02:34;98506.91;;;-0.35;100.00
5283;BME280;15376;48.540;9.268;2023-02-16T03:05:02;98520.28;;;-0.25;100.00
5283;BME280;15376;48.540;9.268;2023-02-16T03:07:30;98525.22;;;-0.21;100.00
5283;BME280;15376;48.540;9.268;2023-02-16T03:10:17;98512.94;;;-0.19;100.00
5283;BME280;15376;48.540;9.268;2023-02-16T03:13:03;98518.16;;;-0.19;100.00
5283;BME280;15376;48.540;9.268;2023-02-16T03:15:30;98517.22;;;-0.18;100.00
5283;BME280;15376;48.540;9.268;2023-02-16T03:17:56;98510.84;;;-0.42;100.00
5283;BME280;15376;48.540;9.268;2023-02-16T03:20:42;98515.34;;;-0.60;100.00
5283;BME280;15376;48.540;9.268;2023-02-16T03:23:28;98509.72;;;-0.68;100.00
5283;BME280;15376;48.540;9.268;2023-02-16T03:26:13;98509.44;;;-0.48;100.00
5283;BME280;15376;48.540;9.268;2023-02-16T03:28:59;98505.72;;;-0.29;100.00
5283;BME280;15376;48.540;9.268;2023-02-16T03:31:48;98503.69;;;-0.24;100.00
5283;BME280;15376;48.540;9.268;2023-02-16T03:34:15;98488.13;;;-0.26;100.00
5283;BME280;15376;48.540;9.268;2023-02-16T03:36:44;98508.38;;;-0.15;100.00
5283;BME280;15376;48.540;9.268;2023-02-16T03:39:11;98502.59;;;-0.06;100.00
5283;BME280;15376;48.540;9.268;2023-02-16T03:41:40;98505.88;;;0.12;100.00
5283;BME280;15376;48.540;9.268;2023-02-16T03:44:06;98508.75;;;0.07;100.00
5283;BME280;15376;48.540;9.268;2023-02-16T03:46:32;98503.44;;;-0.06;100.00
5283;BME280;15376;48.540;9.268;2023-02-16T03:48:57;98504.75;;;-0.13;100.00
5283;BME280;15376;48.540;9.268;2023-02-16T03:51:22;98491.22;;;-0.05;100.00
5283;BME280;15376;48.540;9.268;2023-02-16T03:53:48;98515.47;;;0.11;100.00
5283;BME280;15376;48.540;9.268;2023-02-16T03:56:14;98514.22;;;-0.26;100.00
5283;BME280;15376;48.540;9.268;2023-02-16T03:58:39;98523.56;;;-0.52;100.00
5283;BME280;15376;48.540;9.268;2023-02-16T04:01:05;98523.44;;;-0.64;100.00
5283;BME280;15376;48.540;9.268;2023-02-16T04:03:30;98527.97;;;-0.38;100.00
5283;BME280;15376;48.540;9.268;2023-02-16T04:05:55;98532.63;;;-0.13;100.00
5283;BME280;15376;48.540;9.268;2023-02-16T04:08:21;98513.16;;;-0.38;100.00
5283;BME280;15376;48.540;9.268;2023-02-16T04:10:46;98536.28;;;-0.31;100.00
5283;BME280;15376;48.540;9.268;2023-02-16T04:13:12;98537.63;;;-0.54;100.00
5283;BME280;15376;48.540;9.268;2023-02-16T04:15:37;98544.31;;;-0.64;100.00
5283;BME280;15376;48.540;9.268;2023-02-16T04:18:02;98545.97;;;-0.48;100.00
5283;BME280;15376;48.540;9.268;2023-02-16T04:20:30;98546.47;;;-0.57;100.00
5283;BME280;15376;48.540;9.268;2023-02-16T04:22:56;98547.56;;;-0.61;100.00
5283;BME280;15376;48.540;9.268;2023-02-16T04:25:22;98544.63;;;-0.71;100.00
5283;BME280;15376;48.540;9.268;2023-02-16T04:27:48;98543.22;;;-0.76;100.00
5283;BME280;15376;48.540;9.268;2023-02-16T04:30:19;98546.88;;;-0.94;100.00
5283;BME280;15376;48.540;9.268;2023-02-16T04:32:45;98546.78;;;-1.09;100.00
5283;BME280;15376;48.540;9.268;2023-02-16T04:35:10;98552.25;;;-1.13;100.00
5283;BME280;15376;48.540;9.268;2023-02-16T04:37:36;98541.22;;;-1.18;100.00
5283;BME280;15376;48.540;9.268;2023-02-16T04:40:03;98554.19;;;-1.01;100.00
5283;BME280;15376;48.540;9.268;2023-02-16T04:42:28;98528.47;;;-1.07;100.00
5283;BME280;15376;48.540;9.268;2023-02-16T04:44:54;98540.06;;;-1.13;100.00
5283;BME280;15376;48.540;9.268;2023-02-16T04:47:19;98536.38;;;-1.24;100.00
5283;BME280;15376;48.540;9.268;2023-02-16T04:49:46;98543.84;;;-1.34;100.00
5283;BME280;15376;48.540;9.268;2023-02-16T04:52:12;98546.41;;;-1.65;100.00
5283;BME280;15376;48.540;9.268;2023-02-16T04:54:38;98533.44;;;-1.83;100.00
5283;BME280;15376;48.540;9.268;2023-02-16T04:57:04;98550.03;;;-1.52;100.00
5283;BME280;15376;48.540;9.268;2023-02-16T04:59:29;98524.66;;;-1.17;100.00
5283;BME280;15376;48.540;9.268;2023-02-16T05:01:55;98550.25;;;-0.92;100.00
5283;BME280;15376;48.540;9.268;2023-02-16T05:04:21;98554.19;;;-0.85;100.00
5283;BME280;15376;48.540;9.268;2023-02-16T05:06:47;98557.16;;;-1.23;100.00
5283;BME280;15376;48.540;9.268;2023-02-16T05:09:12;98553.41;;;-1.50;100.00
5283;BME280;15376;48.540;9.268;2023-02-16T05:11:37;98531.47;;;-1.62;100.00
5283;BME280;15376;48.540;9.268;2023-02-16T05:14:24;98518.19;;;-1.57;100.00
5283;BME280;15376;48.540;9.268;2023-02-16T05:17:22;98546.63;;;-1.37;100.00
5283;BME280;15376;48.540;9.268;2023-02-16T05:19:53;98542.84;;;-1.16;100.00
5283;BME280;15376;48.540;9.268;2023-02-16T05:22:18;98545.84;;;-1.08;100.00
5283;BME280;15376;48.540;9.268;2023-02-16T05:24:44;98547.97;;;-1.30;100.00
5283;BME280;15376;48.540;9.268;2023-02-16T05:27:13;98558.00;;;-1.55;100.00
5283;BME280;15376;48.540;9.268;2023-02-16T05:29:38;98547.50;;;-1.70;100.00
5283;BME280;15376;48.540;9.268;2023-02-16T05:32:04;98556.28;;;-1.39;100.00
5283;BME280;15376;48.540;9.268;2023-02-16T05:34:29;98552.00;;;-1.24;100.00
5283;BME280;15376;48.540;9.268;2023-02-16T05:36:55;98563.69;;;-1.00;100.00
5283;BME280;15376;48.540;9.268;2023-02-16T05:39:21;98566.53;;;-1.05;100.00
5283;BME280;15376;48.540;9.268;2023-02-16T05:41:47;98567.66;;;-0.93;100.00
5283;BME280;15376;48.540;9.268;2023-02-16T05:44:14;98551.16;;;-0.93;100.00
5283;BME280;15376;48.540;9.268;2023-02-16T05:46:40;98573.19;;;-0.83;100.00
5283;BME280;15376;48.540;9.268;2023-02-16T05:49:06;98556.28;;;-1.39;100.00
5283;BME280;15376;48.540;9.268;2023-02-16T05:51:32;98584.41;;;-1.46;100.00
5283;BME280;15376;48.540;9.268;2023-02-16T05:53:58;98582.97;;;-1.51;100.00
5283;BME280;15376;48.540;9.268;2023-02-16T05:56:24;98583.78;;;-1.66;100.00
5283;BME280;15376;48.540;9.268;2023-02-16T05:58:49;98587.47;;;-1.71;100.00
5283;BME280;15376;48.540;9.268;2023-02-16T06:01:14;98580.06;;;-1.78;100.00
5283;BME280;15376;48.540;9.268;2023-02-16T06:03:40;98580.97;;;-1.79;100.00
5283;BME280;15376;48.540;9.268;2023-02-16T06:06:06;98583.97;;;-1.87;100.00
5283;BME280;15376;48.540;9.268;2023-02-16T06:08:33;98587.09;;;-1.80;100.00
5283;BME280;15376;48.540;9.268;2023-02-16T06:10:58;98565.91;;;-1.90;100.00
5283;BME280;15376;48.540;9.268;2023-02-16T06:13:24;98584.88;;;-1.71;100.00
5283;BME280;15376;48.540;9.268;2023-02-16T06:15:52;98587.34;;;-1.85;100.00
5283;BME280;15376;48.540;9.268;2023-02-16T06:18:18;98589.25;;;-1.88;100.00
5283;BME280;15376;48.540;9.268;2023-02-16T06:20:43;98587.56;;;-1.56;100.00
5283;BME280;15376;48.540;9.268;2023-02-16T06:23:10;98595.06;;;-1.66;100.00
5283;BME280;15376;48.540;9.268;2023-02-16T06:25:36;98594.25;;;-2.01;100.00
5283;BME280;15376;48.540;9.268;2023-02-16T06:28:02;98602.69;;;-2.13;100.00
5283;BME280;15376;48.540;9.268;2023-02-16T06:30:28;98599.00;;;-2.26;100.00
5283;BME280;15376;48.540;9.268;2023-02-16T06:32:53;98598.16;;;-2.27;100.00
5283;BME280;15376;48.540;9.268;2023-02-16T06:35:19;98602.28;;;-2.23;100.00
5283;BME280;15376;48.540;9.268;2023-02-16T06:37:44;98600.03;;;-1.61;100.00
5283;BME280;15376;48.540;9.268;2023-02-16T06:40:10;98597.41;;;-0.97;100.00
5283;BME280;15376;48.540;9.268;2023-02-16T06:42:38;98600.00;;;-1.13;100.00
5283;BME280;15376;48.540;9.268;2023-02-16T06:45:04;98593.75;;;-1.42;100.00
5283;BME280;15376;48.540;9.268;2023-02-16T06:47:29;98609.91;;;-1.35;100.00
5283;BME280;15376;48.540;9.268;2023-02-16T06:49:55;98568.25;;;-1.52;100.00
5283;BME280;15376;48.540;9.268;2023-02-16T06:52:20;98602.59;;;-1.13;100.00
5283;BME280;15376;48.540;9.268;2023-02-16T06:54:45;98607.50;;;-1.07;100.00
5283;BME280;15376;48.540;9.268;2023-02-16T06:57:11;98597.41;;;-0.81;100.00
5283;BME280;15376;48.540;9.268;2023-02-16T06:59:39;98584.34;;;-0.65;100.00
5283;BME280;15376;48.540;9.268;2023-02-16T07:02:04;98607.31;;;-0.41;100.00
5283;BME280;15376;48.540;9.268;2023-02-16T07:04:30;98604.28;;;-0.49;100.00
5283;BME280;15376;48.540;9.268;2023-02-16T07:06:55;98600.50;;;-0.75;100.00
5283;BME280;15376;48.540;9.268;2023-02-16T07:09:21;98613.72;;;-0.93;100.00
5283;BME280;15376;48.540;9.268;2023-02-16T07:11:46;98612.44;;;-1.18;100.00
5283;BME280;15376;48.540;9.268;2023-02-16T07:14:11;98606.31;;;-1.01;100.00
5283;BME280;15376;48.540;9.268;2023-02-16T07:16:37;98608.19;;;-0.87;100.00
5283;BME280;15376;48.540;9.268;2023-02-16T07:19:02;98609.25;;;-0.76;100.00
5283;BME280;15376;48.540;9.268;2023-02-16T07:21:27;98608.06;;;-0.70;100.00
5283;BME280;15376;48.540;9.268;2023-02-16T07:23:53;98605.47;;;-0.70;100.00
5283;BME280;15376;48.540;9.268;2023-02-16T07:26:18;98618.59;;;-0.56;100.00
5283;BME280;15376;48.540;9.268;2023-02-16T07:28:43;98610.69;;;-0.54;100.00
5283;BME280;15376;48.540;9.268;2023-02-16T07:31:12;98620.69;;;-0.47;100.00
5283;BME280;15376;48.540;9.268;2023-02-16T07:33:39;98617.25;;;-0.47;100.00
5283;BME280;15376;48.540;9.268;2023-02-16T07:36:05;98608.00;;;-0.53;100.00
5283;BME280;15376;48.540;9.268;2023-02-16T07:38:31;98607.47;;;-0.44;100.00
5283;BME280;15376;48.540;9.268;2023-02-16T07:40:57;98604.72;;;-0.26;100.00
5283;BME280;15376;48.540;9.268;2023-02-16T07:43:23;98605.19;;;-0.04;100.00
5283;BME280;15376;48.540;9.268;2023-02-16T07:45:49;98600.22;;;0.06;100.00
5283;BME280;15376;48.540;9.268;2023-02-16T07:48:16;98612.13;;;0.25;100.00
5283;BME280;15376;48.540;9.268;2023-02-16T07:50:41;98614.22;;;0.35;100.00
5283;BME280;15376;48.540;9.268;2023-02-16T07:53:06;98617.75;;;0.48;100.00
5283;BME280;15376;48.540;9.268;2023-02-16T07:55:37;98613.09;;;0.67;100.00
5283;BME280;15376;48.540;9.268;2023-02-16T07:58:02;98607.50;;;0.73;100.00
5283;BME280;15376;48.540;9.268;2023-02-16T08:00:28;98606.34;;;0.91;100.00
5283;BME280;15376;48.540;9.268;2023-02-16T08:02:54;98606.63;;;1.01;100.00
5283;BME280;15376;48.540;9.268;2023-02-16T08:05:19;98608.94;;;1.20;100.00
5283;BME280;15376;48.540;9.268;2023-02-16T08:07:44;98593.94;;;1.22;100.00
5283;BME280;15376;48.540;9.268;2023-02-16T08:10:10;98607.94;;;1.35;100.00
5283;BME280;15376;48.540;9.268;2023-02-16T08:12:36;98604.19;;;1.39;100.00
5283;BME280;15376;48.540;9.268;2023-02-16T08:15:02;98589.22;;;1.41;100.00
5283;BME280;15376;48.540;9.268;2023-02-16T08:17:28;98605.00;;;1.54;100.00
5283;BME280;15376;48.540;9.268;2023-02-16T08:19:53;98607.09;;;1.61;100.00
5283;BME280;15376;48.540;9.268;2023-02-16T08:22:20;98624.00;;;1.70;100.00
5283;BME280;15376;48.540;9.268;2023-02-16T08:24:45;98609.06;;;1.85;100.00
5283;BME280;15376;48.540;9.268;2023-02-16T08:27:11;98611.41;;;2.15;100.00
5283;BME280;15376;48.540;9.268;2023-02-16T08:29:37;98608.81;;;2.40;100.00
5283;BME280;15376;48.540;9.268;2023-02-16T08:32:02;98610.91;;;2.60;100.00
5283;BME280;15376;48.540;9.268;2023-02-16T08:34:33;98612.59;;;2.74;100.00
5283;BME280;15376;48.540;9.268;2023-02-16T08:36:58;98607.00;;;2.91;100.00
5283;BME280;15376;48.540;9.268;2023-02-16T08:39:26;98619.56;;;3.12;100.00
5283;BME280;15376;48.540;9.268;2023-02-16T08:41:53;98608.59;;;3.30;100.00
5283;BME280;15376;48.540;9.268;2023-02-16T08:44:20;98612.53;;;3.49;100.00
5283;BME280;15376;48.540;9.268;2023-02-16T08:46:47;98608.66;;;3.65;100.00
5283;BME280;15376;48.540;9.268;2023-02-16T08:49:14;98612.78;;;3.81;100.00
5283;BME280;15376;48.540;9.268;2023-02-16T08:51:43;98614.31;;;3.96;100.00
5283;BME280;15376;48.540;9.268;2023-02-16T08:54:14;98616.88;;;4.20;100.00
5283;BME280;15376;48.540;9.268;2023-02-16T08:56:40;98615.84;;;4.33;100.00
5283;BME280;15376;48.540;9.268;2023-02-16T08:59:09;98617.06;;;4.52;100.00
5283;BME280;15376;48.540;9.268;2023-02-16T09:01:35;98618.03;;;4.62;100.00
5283;BME280;15376;48.540;9.268;2023-02-16T09:04:00;98616.50;;;4.82;100.00
5283;BME280;15376;48.540;9.268;2023-02-16T09:06:25;98611.25;;;5.04;100.00
5283;BME280;15376;48.540;9.268;2023-02-16T09:08:53;98614.59;;;5.60;100.00
5283;BME280;15376;48.540;9.268;2023-02-16T09:11:19;98601.97;;;6.39;100.00
5283;BME280;15376;48.540;9.268;2023-02-16T09:13:45;98608.81;;;7.62;95.12
5283;BME280;15376;48.540;9.268;2023-02-16T09:16:21;98596.56;;;8.67;88.07
5283;BME280;15376;48.540;9.268;2023-02-16T09:18:48;98594.47;;;9.98;79.00
5283;BME280;15376;48.540;9.268;2023-02-16T09:21:17;98614.09;;;10.92;77.38
5283;BME280;15376;48.540;9.268;2023-02-16T09:23:45;98598.53;;;11.40;69.86
5283;BME280;15376;48.540;9.268;2023-02-16T09:26:13;98597.94;;;12.37;65.06
5283;BME280;15376;48.540;9.268;2023-02-16T09:28:39;98604.97;;;13.09;62.49
5283;BME280;15376;48.540;9.268;2023-02-16T09:31:25;98600.47;;;14.11;59.90
5283;BME280;15376;48.540;9.268;2023-02-16T09:34:06;98596.66;;;15.18;57.07
5283;BME280;15376;48.540;9.268;2023-02-16T09:36:33;98592.34;;;15.82;51.94
5283;BME280;15376;48.540;9.268;2023-02-16T09:38:59;98597.44;;;16.41;49.57
5283;BME280;15376;48.540;9.268;2023-02-16T09:44:24;98593.34;;;18.90;42.15
5283;BME280;15376;48.540;9.268;2023-02-16T09:46:57;98599.31;;;18.46;42.27
5283;BME280;15376;48.540;9.268;2023-02-16T09:49:39;98594.00;;;18.66;39.85
5283;BME280;15376;48.540;9.268;2023-02-16T09:55:16;98595.13;;;20.25;36.80
5283;BME280;15376;48.540;9.268;2023-02-16T09:58:01;98595.09;;;19.36;37.42
5283;BME280;15376;48.540;9.268;2023-02-16T10:05:48;98590.94;;;21.29;33.90
5283;BME280;15376;48.540;9.268;2023-02-16T10:08:24;98587.44;;;21.47;32.71
5283;BME280;15376;48.540;9.268;2023-02-16T10:11:06;98590.78;;;21.60;31.58
5283;BME280;15376;48.540;9.268;2023-02-16T10:13:55;98585.53;;;21.66;31.48
5283;BME280;15376;48.540;9.268;2023-02-16T10:16:28;98575.91;;;22.00;30.55
5283;BME280;15376;48.540;9.268;2023-02-16T10:18:55;98573.00;;;19.79;32.03
5283;BME280;15376;48.540;9.268;2023-02-16T10:21:25;98584.84;;;19.07;33.39
5283;BME280;15376;48.540;9.268;2023-02-16T10:23:57;98583.50;;;17.02;36.48
5283;BME280;15376;48.540;9.268;2023-02-16T10:26:31;98572.34;;;16.49;38.72
5283;BME280;15376;48.540;9.268;2023-02-16T10:29:00;98579.81;;;14.80;42.39
5283;BME280;15376;48.540;9.268;2023-02-16T10:37:22;98574.94;;;12.27;49.36
5283;BME280;15376;48.540;9.268;2023-02-16T10:42:26;98565.63;;;10.98;53.37
5283;BME280;15376;48.540;9.268;2023-02-16T10:47:40;98559.56;;;10.80;55.08
5283;BME280;15376;48.540;9.268;2023-02-16T10:50:35;98548.47;;;10.59;55.69
5283;BME280;15376;48.540;9.268;2023-02-16T10:53:06;98568.91;;;10.32;57.41
5283;BME280;15376;48.540;9.268;2023-02-16T10:55:33;98564.28;;;10.34;57.10
5283;BME280;15376;48.540;9.268;2023-02-16T10:58:01;98533.84;;;10.29;56.38
5283;BME280;15376;48.540;9.268;2023-02-16T11:00:46;98543.22;;;10.41;57.28
5283;BME280;15376;48.540;9.268;2023-02-16T11:03:14;98554.06;;;10.48;57.27
5283;BME280;15376;48.540;9.268;2023-02-16T11:05:40;98549.41;;;10.50;58.54
5283;BME280;15376;48.540;9.268;2023-02-16T11:08:08;98540.91;;;10.38;59.12
5283;BME280;15376;48.540;9.268;2023-02-16T11:10:40;98546.75;;;10.50;59.33
5283;BME280;15376;48.540;9.268;2023-02-16T11:13:19;98549.72;;;10.47;59.59
5283;BME280;15376;48.540;9.268;2023-02-16T11:15:51;98539.00;;;10.56;59.82
5283;BME280;15376;48.540;9.268;2023-02-16T11:20:59;98538.63;;;10.77;59.51
5283;BME280;15376;48.540;9.268;2023-02-16T11:31:30;98519.94;;;10.61;60.65
5283;BME280;15376;48.540;9.268;2023-02-16T11:36:46;98517.50;;;11.10;58.39
5283;BME280;15376;48.540;9.268;2023-02-16T11:39:34;98523.34;;;11.13;57.05
5283;BME280;15376;48.540;9.268;2023-02-16T11:42:47;98516.69;;;11.09;56.39
5283;BME280;15376;48.540;9.268;2023-02-16T11:44:52;98496.28;;;11.26;56.55
5283;BME280;15376;48.540;9.268;2023-02-16T11:47:23;98510.16;;;11.70;55.29
5283;BME280;15376;48.540;9.268;2023-02-16T11:50:23;98508.53;;;11.85;53.58
5283;BME280;15376;48.540;9.268;2023-02-16T11:55:45;98495.06;;;11.79;52.60
5283;BME280;15376;48.540;9.268;2023-02-16T11:58:22;98475.94;;;11.91;53.48
5283;BME280;15376;48.540;9.268;2023-02-16T12:04:29;98491.53;;;12.27;52.21
5283;BME280;15376;48.540;9.268;2023-02-16T12:15:20;98469.06;;;12.38;52.07
5283;BME280;15376;48.540;9.268;2023-02-16T12:20:40;98459.00;;;12.48;51.78
5283;BME280;15376;48.540;9.268;2023-02-16T12:28:41;98458.72;;;12.82;47.13
5283;BME280;15376;48.540;9.268;2023-02-16T12:31:29;98456.00;;;12.59;47.71
5283;BME280;15376;48.540;9.268;2023-02-16T12:34:32;98464.44;;;12.79;46.47
5283;BME280;15376;48.540;9.268;2023-02-16T12:37:11;98458.53;;;12.91;47.75
5283;BME280;15376;48.540;9.268;2023-02-16T12:42:41;98460.38;;;12.83;46.43
5283;BME280;15376;48.540;9.268;2023-02-16T12:45:20;98434.00;;;12.96;45.88
5283;BME280;15376;48.540;9.268;2023-02-16T12:47:55;98439.84;;;12.91;45.99
5283;BME280;15376;48.540;9.268;2023-02-16T12:50:30;98451.88;;;12.87;46.75
5283;BME280;15376;48.540;9.268;2023-02-16T12:53:07;98413.69;;;12.64;46.93
5283;BME280;15376;48.540;9.268;2023-02-16T12:55:43;98416.91;;;12.82;47.46
5283;BME280;15376;48.540;9.268;2023-02-16T12:58:15;98434.50;;;12.99;46.46
5283;BME280;15376;48.540;9.268;2023-02-16T13:01:03;98418.84;;;12.96;46.88
5283;BME280;15376;48.540;9.268;2023-02-16T13:03:51;98422.13;;;13.07;48.20
5283;BME280;15376;48.540;9.268;2023-02-16T13:06:25;98411.56;;;13.44;49.21
5283;BME280;15376;48.540;9.268;2023-02-16T13:09:20;98400.00;;;13.29;48.83
5283;BME280;15376;48.540;9.268;2023-02-16T13:12:46;98407.91;;;13.14;48.79
5283;BME280;15376;48.540;9.268;2023-02-16T13:14:51;98388.09;;;13.17;48.72
5283;BME280;15376;48.540;9.268;2023-02-16T13:17:22;98399.25;;;13.12;48.09
5283;BME280;15376;48.540;9.268;2023-02-16T13:19:52;98385.91;;;13.12;48.54
5283;BME280;15376;48.540;9.268;2023-02-16T13:22:54;98393.66;;;13.30;48.42
5283;BME280;15376;48.540;9.268;2023-02-16T13:25:47;98392.59;;;13.39;45.99
5283;BME280;15376;48.540;9.268;2023-02-16T13:31:12;98381.66;;;13.26;45.19
5283;BME280;15376;48.540;9.268;2023-02-16T13:36:55;98383.22;;;13.43;44.24
5283;BME280;15376;48.540;9.268;2023-02-16T13:40:10;98386.47;;;13.30;44.22
5283;BME280;15376;48.540;9.268;2023-02-16T13:43:00;98381.84;;;13.47;44.42
5283;BME280;15376;48.540;9.268;2023-02-16T13:45:31;98380.38;;;13.45;45.06
5283;BME280;15376;48.540;9.268;2023-02-16T13:47:58;98386.19;;;13.48;44.96
5283;BME280;15376;48.540;9.268;2023-02-16T13:50:30;98374.63;;;13.71;44.33
5283;BME280;15376;48.540;9.268;2023-02-16T13:53:08;98381.84;;;13.85;43.42
5283;BME280;15376;48.540;9.268;2023-02-16T13:55:37;98391.34;;;13.87;44.00
5283;BME280;15376;48.540;9.268;2023-02-16T14:00:41;98393.53;;;13.84;44.10
5283;BME280;15376;48.540;9.268;2023-02-16T14:03:19;98392.88;;;13.82;44.33
5283;BME280;15376;48.540;9.268;2023-02-16T14:19:54;98389.94;;;13.77;43.85
5283;BME280;15376;48.540;9.268;2023-02-16T14:27:51;98392.09;;;13.35;45.03
5283;BME280;15376;48.540;9.268;2023-02-16T14:35:33;98385.72;;;13.45;45.65
5283;BME280;15376;48.540;9.268;2023-02-16T14:38:16;98387.47;;;13.29;45.96
5283;BME280;15376;48.540;9.268;2023-02-16T14:40:46;98396.22;;;13.46;45.35
5283;BME280;15376;48.540;9.268;2023-02-16T14:46:20;98402.06;;;13.42;45.68
5283;BME280;15376;48.540;9.268;2023-02-16T14:49:08;98384.56;;;13.39;46.04
5283;BME280;15376;48.540;9.268;2023-02-16T14:57:11;98409.03;;;13.20;47.27
5283;BME280;15376;48.540;9.268;2023-02-16T15:00:06;98411.53;;;13.21;48.79
5283;BME280;15376;48.540;9.268;2023-02-16T15:02:40;98402.50;;;12.99;49.36
5283;BME280;15376;48.540;9.268;2023-02-16T15:05:16;98418.75;;;13.13;49.05
5283;BME280;15376;48.540;9.268;2023-02-16T15:07:43;98417.44;;;13.09;49.51
5283;BME280;15376;48.540;9.268;2023-02-16T15:10:11;98422.59;;;13.18;48.92
5283;BME280;15376;48.540;9.268;2023-02-16T15:12:39;98413.50;;;12.96;49.02
5283;BME280;15376;48.540;9.268;2023-02-16T15:15:06;98423.47;;;13.02;49.59
5283;BME280;15376;48.540;9.268;2023-02-16T15:17:43;98422.50;;;12.95;49.26
5283;BME280;15376;48.540;9.268;2023-02-16T15:20:39;98419.31;;;13.00;49.44
5283;BME280;15376;48.540;9.268;2023-02-16T15:23:19;98415.25;;;12.81;50.21
5283;BME280;15376;48.540;9.268;2023-02-16T15:26:00;98415.41;;;12.80;50.50
5283;BME280;15376;48.540;9.268;2023-02-16T15:28:31;98415.47;;;12.72;50.83